Time;durP1;ratioP1;P1;durP2;ratioP2;P2;SDS_P1;SDS_P2;PMS_P1;PMS_P2;Temp;Humidity;BMP_temperature;BMP_pressure;BME280_temperature;BME280_humidity;BME280_pressure;Samples;Min_cycle;Max_cycle;Signal;HPM_P1;HPM_P2
2023/08/18 00:02:17;;;;;;;5.32;2.00;;;;;;;;;;5068096;28;20041;-82
2023/08/18 00:04:43;;;;;;;5.97;1.90;;;;;;;;;;5061224;28;20069;-82
2023/08/18 00:07:10;;;;;;;7.55;1.98;;;;;;;;;;5068072;28;20072;-82
2023/08/18 00:09:36;;;;;;;5.72;1.80;;;;;;;;;;5069203;28;20045;-82
2023/08/18 00:12:04;;;;;;;5.47;2.00;;;;;;;;;;5033633;28;20044;-83
2023/08/18 00:14:31;;;;;;;6.28;1.63;;;;;;;;;;5063910;28;20037;-83
2023/08/18 00:16:57;;;;;;;3.63;1.33;;;;;;;;;;5064068;28;20181;-83
2023/08/18 00:19:23;;;;;;;4.80;1.77;;;;;;;;;;5060377;28;20041;-83
2023/08/18 00:21:49;;;;;;;4.63;1.80;;;;;;;;;;5069608;28;20112;-83
2023/08/18 00:24:15;;;;;;;6.57;1.85;;;;;;;;;;5068155;28;20045;-82
2023/08/18 00:26:41;;;;;;;7.50;2.15;;;;;;;;;;5067746;28;20044;-82
2023/08/18 00:29:07;;;;;;;5.10;2.10;;;;;;;;;;5066892;28;20100;-82
2023/08/18 00:31:34;;;;;;;5.53;1.98;;;;;;;;;;5065688;28;20095;-82
2023/08/18 00:34:00;;;;;;;6.15;2.38;;;;;;;;;;5067112;28;20049;-83
2023/08/18 00:36:27;;;;;;;6.22;2.17;;;;;;;;;;5064665;28;20111;-83
2023/08/18 00:38:54;;;;;;;5.85;2.10;;;;;;;;;;5060882;28;20076;-82
2023/08/18 00:41:20;;;;;;;7.47;2.70;;;;;;;;;;5060864;28;20048;-82
2023/08/18 00:43:46;;;;;;;8.88;2.30;;;;;;;;;;5066947;28;20418;-83
2023/08/18 00:46:12;;;;;;;7.55;1.90;;;;;;;;;;5066692;28;20100;-85
2023/08/18 00:48:39;;;;;;;6.05;1.92;;;;;;;;;;5046360;28;20056;-83
2023/08/18 00:51:05;;;;;;;5.90;2.08;;;;;;;;;;5048070;28;20041;-83
2023/08/18 00:53:32;;;;;;;8.10;2.20;;;;;;;;;;5066677;28;20040;-83
2023/08/18 00:56:01;;;;;;;6.40;2.05;;;;;;;;;;5066701;28;20040;-84
2023/08/18 00:58:27;;;;;;;6.88;2.10;;;;;;;;;;5033614;28;20037;-83
2023/08/18 01:00:54;;;;;;;6.53;2.15;;;;;;;;;;5067162;28;20048;-84
2023/08/18 01:03:20;;;;;;;6.00;2.35;;;;;;;;;;5066366;28;20034;-83
2023/08/18 01:05:46;;;;;;;6.30;2.08;;;;;;;;;;5067040;28;20052;-82
2023/08/18 01:08:12;;;;;;;8.05;2.10;;;;;;;;;;5068466;28;20044;-84
2023/08/18 01:10:46;;;;;;;7.78;2.30;;;;;;;;;;5050867;28;20055;-83
2023/08/18 01:13:20;;;;;;;8.50;2.17;;;;;;;;;;5067793;28;20500;-84
2023/08/18 01:15:46;;;;;;;5.97;2.03;;;;;;;;;;5052135;28;20109;-83
2023/08/18 01:18:13;;;;;;;7.28;2.25;;;;;;;;;;5069030;28;20044;-83
2023/08/18 01:20:40;;;;;;;8.25;2.83;;;;;;;;;;5069684;28;20051;-85
2023/08/18 01:23:08;;;;;;;7.25;2.03;;;;;;;;;;5070804;28;20047;-82
2023/08/18 01:25:34;;;;;;;7.43;3.08;;;;;;;;;;5070804;28;20072;-83
2023/08/18 01:28:02;;;;;;;8.68;2.20;;;;;;;;;;5071066;28;20045;-83
2023/08/18 01:30:32;;;;;;;7.45;2.47;;;;;;;;;;5070284;28;20397;-83
2023/08/18 01:33:01;;;;;;;8.07;2.60;;;;;;;;;;5051384;28;20044;-83
2023/08/18 01:35:28;;;;;;;8.18;2.70;;;;;;;;;;5051555;28;20033;-83
2023/08/18 01:37:55;;;;;;;7.10;2.88;;;;;;;;;;5069278;28;20045;-82
2023/08/18 01:40:23;;;;;;;7.88;2.78;;;;;;;;;;5069262;28;20067;-82
2023/08/18 01:42:51;;;;;;;6.82;2.47;;;;;;;;;;5067688;28;20047;-83
2023/08/18 01:45:17;;;;;;;6.53;2.70;;;;;;;;;;5068806;28;20056;-82
2023/08/18 01:47:43;;;;;;;8.45;3.10;;;;;;;;;;5070328;28;20128;-83
2023/08/18 01:50:10;;;;;;;9.05;3.33;;;;;;;;;;5069118;28;20071;-82
2023/08/18 01:52:36;;;;;;;7.60;3.22;;;;;;;;;;5069795;28;20067;-83
2023/08/18 01:55:02;;;;;;;7.30;2.88;;;;;;;;;;5067854;28;20037;-83
2023/08/18 01:57:29;;;;;;;11.07;3.15;;;;;;;;;;5069219;28;20041;-83
2023/08/18 01:59:55;;;;;;;8.82;2.97;;;;;;;;;;5069219;28;20045;-83
2023/08/18 02:02:21;;;;;;;7.22;3.05;;;;;;;;;;5064041;28;20130;-83
2023/08/18 02:04:47;;;;;;;8.60;3.15;;;;;;;;;;5063509;28;20055;-83
2023/08/18 02:07:13;;;;;;;8.68;3.20;;;;;;;;;;5068480;28;20055;-83
2023/08/18 02:09:39;;;;;;;8.55;3.15;;;;;;;;;;5050834;28;20052;-84
2023/08/18 02:12:06;;;;;;;9.93;3.20;;;;;;;;;;5067802;28;20075;-83
2023/08/18 02:14:32;;;;;;;9.32;3.30;;;;;;;;;;5068354;28;20095;-82
2023/08/18 02:17:02;;;;;;;8.77;3.53;;;;;;;;;;5050833;28;20041;-83
2023/08/18 02:19:28;;;;;;;7.18;3.40;;;;;;;;;;5079569;28;20048;-83
2023/08/18 02:21:54;;;;;;;7.60;3.25;;;;;;;;;;5072869;28;20064;-83
2023/08/18 02:24:20;;;;;;;8.40;3.42;;;;;;;;;;5067452;28;20399;-83
2023/08/18 02:26:46;;;;;;;8.40;3.55;;;;;;;;;;5067906;28;20557;-83
2023/08/18 02:29:13;;;;;;;7.95;3.53;;;;;;;;;;5068257;28;20176;-83
2023/08/18 02:31:39;;;;;;;7.75;3.72;;;;;;;;;;5052262;28;20055;-83
2023/08/18 02:34:05;;;;;;;6.18;3.10;;;;;;;;;;5059333;28;20056;-84
2023/08/18 02:36:31;;;;;;;9.02;3.70;;;;;;;;;;5068860;28;20056;-84
2023/08/18 02:38:57;;;;;;;8.77;3.72;;;;;;;;;;5051133;28;20049;-84
2023/08/18 02:41:24;;;;;;;8.95;3.70;;;;;;;;;;5061773;28;20039;-82
2023/08/18 02:43:50;;;;;;;8.75;4.00;;;;;;;;;;5067834;28;20043;-82
2023/08/18 02:46:16;;;;;;;7.13;3.88;;;;;;;;;;5050176;28;20041;-84
2023/08/18 02:48:42;;;;;;;10.05;4.10;;;;;;;;;;5067389;28;20447;-82
2023/08/18 02:51:09;;;;;;;8.70;3.65;;;;;;;;;;5032144;28;20048;-84
2023/08/18 02:53:37;;;;;;;9.43;4.15;;;;;;;;;;5067678;28;20040;-83
2023/08/18 02:56:03;;;;;;;10.10;4.13;;;;;;;;;;5061353;28;20117;-83
2023/08/18 02:58:30;;;;;;;9.40;4.20;;;;;;;;;;5064268;28;20069;-84
2023/08/18 03:00:56;;;;;;;9.18;4.28;;;;;;;;;;5050094;28;20373;-83
2023/08/18 03:03:23;;;;;;;10.43;4.15;;;;;;;;;;5053831;28;20049;-83
2023/08/18 03:05:50;;;;;;;8.52;4.13;;;;;;;;;;5049403;28;20079;-84
2023/08/18 03:08:16;;;;;;;10.13;4.10;;;;;;;;;;5059371;28;20451;-83
2023/08/18 03:10:42;;;;;;;10.43;4.40;;;;;;;;;;5067045;28;20040;-84
2023/08/18 03:13:08;;;;;;;7.68;4.25;;;;;;;;;;5066262;28;20044;-82
2023/08/18 03:15:40;;;;;;;8.32;3.88;;;;;;;;;;5049108;28;20085;-83
2023/08/18 03:18:06;;;;;;;8.77;4.22;;;;;;;;;;5067024;28;20056;-82
2023/08/18 03:20:33;;;;;;;7.70;3.88;;;;;;;;;;5067674;28;20045;-84
2023/08/18 03:22:59;;;;;;;8.77;3.55;;;;;;;;;;5065076;28;20052;-83
2023/08/18 03:25:25;;;;;;;6.65;3.70;;;;;;;;;;5066519;28;20041;-84
2023/08/18 03:27:51;;;;;;;7.30;3.33;;;;;;;;;;5063418;28;20040;-83
2023/08/18 03:30:17;;;;;;;11.15;3.63;;;;;;;;;;5065619;28;20077;-83
2023/08/18 03:32:44;;;;;;;8.02;3.78;;;;;;;;;;5064735;28;20052;-82
2023/08/18 03:35:10;;;;;;;8.00;3.45;;;;;;;;;;5064661;28;20109;-83
2023/08/18 03:37:36;;;;;;;10.20;4.28;;;;;;;;;;5066654;28;20063;-83
2023/08/18 03:40:04;;;;;;;8.45;3.70;;;;;;;;;;5066077;28;20132;-82
2023/08/18 03:42:30;;;;;;;6.78;4.18;;;;;;;;;;5065755;28;20041;-82
2023/08/18 03:44:56;;;;;;;10.13;4.07;;;;;;;;;;5066741;28;20067;-83
2023/08/18 03:47:22;;;;;;;8.75;4.60;;;;;;;;;;5066258;28;20064;-83
2023/08/18 03:49:48;;;;;;;9.35;4.15;;;;;;;;;;5064559;28;20033;-82
2023/08/18 03:52:15;;;;;;;7.60;3.92;;;;;;;;;;5065424;28;20049;-83
2023/08/18 03:54:42;;;;;;;8.02;4.60;;;;;;;;;;5042344;28;20398;-83
2023/08/18 03:57:08;;;;;;;10.30;5.05;;;;;;;;;;5065316;28;20045;-83
2023/08/18 03:59:34;;;;;;;8.50;4.60;;;;;;;;;;5051606;28;20415;-83
2023/08/18 04:02:00;;;;;;;11.15;4.70;;;;;;;;;;5053538;28;20048;-83
2023/08/18 04:04:26;;;;;;;10.68;5.05;;;;;;;;;;5052757;28;20075;-84
2023/08/18 04:06:53;;;;;;;8.50;4.68;;;;;;;;;;5063958;28;20095;-83
2023/08/18 04:09:19;;;;;;;9.60;5.03;;;;;;;;;;5046490;28;20056;-83
2023/08/18 04:11:45;;;;;;;10.10;5.03;;;;;;;;;;5064504;28;20037;-84
2023/08/18 04:14:11;;;;;;;8.05;5.10;;;;;;;;;;5063569;28;20052;-83
2023/08/18 04:16:38;;;;;;;9.98;5.40;;;;;;;;;;5064714;28;20053;-83
2023/08/18 04:19:04;;;;;;;9.43;5.72;;;;;;;;;;5066489;28;20053;-84
2023/08/18 04:21:31;;;;;;;9.55;4.78;;;;;;;;;;5061286;28;20045;-84
2023/08/18 04:23:57;;;;;;;10.05;5.20;;;;;;;;;;5025851;28;20058;-83
2023/08/18 04:26:23;;;;;;;11.40;5.97;;;;;;;;;;5035173;28;20113;-83
2023/08/18 04:28:51;;;;;;;11.63;6.18;;;;;;;;;;5062730;28;20041;-82
2023/08/18 04:31:17;;;;;;;12.35;5.93;;;;;;;;;;5056019;28;20044;-83
2023/08/18 04:33:43;;;;;;;13.55;6.85;;;;;;;;;;5045861;28;20124;-84
2023/08/18 04:36:09;;;;;;;13.48;6.25;;;;;;;;;;5066068;28;20102;-83
2023/08/18 04:38:35;;;;;;;10.20;6.65;;;;;;;;;;5063048;28;20515;-83
2023/08/18 04:41:02;;;;;;;12.25;6.35;;;;;;;;;;5048913;28;20073;-83
2023/08/18 04:43:30;;;;;;;11.18;6.38;;;;;;;;;;5035884;28;20044;-83
2023/08/18 04:45:56;;;;;;;13.00;6.55;;;;;;;;;;5068471;28;20077;-84
2023/08/18 04:48:23;;;;;;;12.43;6.65;;;;;;;;;;5073160;28;20041;-84
2023/08/18 04:50:51;;;;;;;9.35;6.30;;;;;;;;;;5069348;28;20397;-84
2023/08/18 04:53:17;;;;;;;11.23;6.10;;;;;;;;;;5070149;28;20062;-84
2023/08/18 04:55:43;;;;;;;11.00;6.05;;;;;;;;;;5065117;28;20041;-84
2023/08/18 04:58:13;;;;;;;11.35;6.45;;;;;;;;;;5064426;28;20053;-85
2023/08/18 05:00:42;;;;;;;11.77;6.35;;;;;;;;;;5069010;28;20075;-85
2023/08/18 05:03:08;;;;;;;12.10;6.40;;;;;;;;;;5069315;28;20116;-84
2023/08/18 05:05:38;;;;;;;11.52;7.00;;;;;;;;;;5069363;28;20056;-84
2023/08/18 05:08:04;;;;;;;13.82;7.15;;;;;;;;;;5068811;28;20041;-84
2023/08/18 05:10:33;;;;;;;12.80;7.00;;;;;;;;;;5068048;28;20045;-85
2023/08/18 05:13:01;;;;;;;13.73;6.80;;;;;;;;;;5069271;28;20136;-85
2023/08/18 05:15:27;;;;;;;11.95;7.18;;;;;;;;;;5068558;28;20048;-84
2023/08/18 05:17:53;;;;;;;13.75;6.97;;;;;;;;;;5051356;28;20061;-83
2023/08/18 05:20:19;;;;;;;12.13;6.78;;;;;;;;;;5069313;28;20048;-84
2023/08/18 05:22:46;;;;;;;13.25;6.72;;;;;;;;;;5051375;28;20049;-83
2023/08/18 05:25:13;;;;;;;11.88;6.45;;;;;;;;;;5070061;28;20044;-82
2023/08/18 05:27:39;;;;;;;11.93;6.28;;;;;;;;;;5053166;28;20076;-83
2023/08/18 05:30:06;;;;;;;13.25;6.45;;;;;;;;;;5052570;28;20065;-83
2023/08/18 05:32:32;;;;;;;10.75;6.53;;;;;;;;;;5068053;28;20036;-83
2023/08/18 05:34:58;;;;;;;11.05;6.97;;;;;;;;;;5050747;28;20537;-84
2023/08/18 05:37:24;;;;;;;11.07;6.25;;;;;;;;;;5068621;28;20041;-84
2023/08/18 05:39:50;;;;;;;10.32;6.63;;;;;;;;;;5067206;28;20068;-84
2023/08/18 05:42:17;;;;;;;9.95;6.65;;;;;;;;;;5053982;28;20037;-83
2023/08/18 05:44:43;;;;;;;10.35;6.25;;;;;;;;;;5062012;28;20092;-82
2023/08/18 05:47:09;;;;;;;12.25;7.20;;;;;;;;;;5068403;28;20087;-83
2023/08/18 05:49:35;;;;;;;11.10;6.82;;;;;;;;;;5067959;28;20073;-83
2023/08/18 05:52:01;;;;;;;9.80;6.28;;;;;;;;;;5049713;28;20072;-83
2023/08/18 05:54:27;;;;;;;11.30;6.38;;;;;;;;;;5068145;28;20091;-83
2023/08/18 05:56:53;;;;;;;11.10;6.15;;;;;;;;;;5068990;28;20041;-84
2023/08/18 05:59:19;;;;;;;11.73;6.57;;;;;;;;;;5069392;28;20037;-83
2023/08/18 06:01:46;;;;;;;12.07;6.20;;;;;;;;;;5068285;28;20529;-83
2023/08/18 06:04:12;;;;;;;10.82;7.05;;;;;;;;;;5068152;28;20071;-83
2023/08/18 06:06:38;;;;;;;10.85;6.40;;;;;;;;;;5068400;28;20053;-83
2023/08/18 06:09:05;;;;;;;12.05;6.93;;;;;;;;;;5057837;28;20041;-83
2023/08/18 06:11:31;;;;;;;13.38;6.60;;;;;;;;;;5041710;28;20048;-81
2023/08/18 06:13:59;;;;;;;11.88;6.32;;;;;;;;;;5068224;28;20083;-83
2023/08/18 06:16:25;;;;;;;15.30;7.00;;;;;;;;;;5065264;28;20041;-83
2023/08/18 06:18:51;;;;;;;14.35;7.00;;;;;;;;;;5053126;28;20046;-84
2023/08/18 06:21:17;;;;;;;13.60;6.78;;;;;;;;;;5060904;28;20049;-83
2023/08/18 06:23:43;;;;;;;16.25;6.93;;;;;;;;;;5062811;28;20064;-83
2023/08/18 06:26:10;;;;;;;12.70;7.00;;;;;;;;;;5029748;28;20392;-83
2023/08/18 06:28:36;;;;;;;11.60;6.22;;;;;;;;;;5060128;28;20123;-83
2023/08/18 06:31:06;;;;;;;14.57;6.85;;;;;;;;;;5064245;28;20123;-82
2023/08/18 06:33:32;;;;;;;11.75;6.15;;;;;;;;;;5064612;28;20052;-83
2023/08/18 06:35:58;;;;;;;13.73;6.68;;;;;;;;;;5057798;28;20084;-84
2023/08/18 06:38:24;;;;;;;11.05;6.80;;;;;;;;;;5064130;28;20053;-83
2023/08/18 06:40:50;;;;;;;12.70;6.65;;;;;;;;;;5063983;28;20075;-82
2023/08/18 06:43:16;;;;;;;13.98;6.35;;;;;;;;;;5061052;28;20399;-83
2023/08/18 06:45:43;;;;;;;14.15;6.35;;;;;;;;;;5065557;28;20104;-82
2023/08/18 06:48:09;;;;;;;15.52;6.97;;;;;;;;;;5064520;28;20041;-82
2023/08/18 06:50:35;;;;;;;12.95;7.25;;;;;;;;;;5042663;28;20131;-83
2023/08/18 06:53:01;;;;;;;20.95;7.93;;;;;;;;;;5062703;28;20390;-84
2023/08/18 06:55:27;;;;;;;21.23;7.47;;;;;;;;;;5042731;28;20559;-84
2023/08/18 06:57:56;;;;;;;17.73;7.85;;;;;;;;;;5047327;28;20104;-83
2023/08/18 07:00:22;;;;;;;17.30;8.30;;;;;;;;;;5041152;28;20100;-84
2023/08/18 07:02:49;;;;;;;20.83;8.52;;;;;;;;;;5064570;28;20065;-83
2023/08/18 07:05:16;;;;;;;14.68;7.70;;;;;;;;;;5062840;28;20049;-84
2023/08/18 07:07:43;;;;;;;14.82;7.93;;;;;;;;;;5046369;28;20067;-83
2023/08/18 07:10:09;;;;;;;17.23;7.70;;;;;;;;;;5066000;28;20040;-82
2023/08/18 07:12:35;;;;;;;19.67;8.18;;;;;;;;;;5064852;28;20041;-83
2023/08/18 07:15:02;;;;;;;17.77;8.13;;;;;;;;;;5047504;28;20041;-82
2023/08/18 07:17:28;;;;;;;17.17;8.55;;;;;;;;;;5063782;28;20038;-83
2023/08/18 07:19:55;;;;;;;21.40;8.10;;;;;;;;;;5064494;28;20045;-82
2023/08/18 07:22:21;;;;;;;17.52;8.50;;;;;;;;;;5064788;28;20036;-83
2023/08/18 07:24:48;;;;;;;23.10;8.90;;;;;;;;;;5066425;28;20067;-82
2023/08/18 07:27:14;;;;;;;18.08;8.40;;;;;;;;;;5065795;28;20128;-83
2023/08/18 07:29:41;;;;;;;19.50;9.20;;;;;;;;;;5066312;28;20049;-82
2023/08/18 07:32:07;;;;;;;19.92;9.50;;;;;;;;;;5063483;28;20037;-81
2023/08/18 07:34:33;;;;;;;18.13;8.80;;;;;;;;;;5048728;28;20049;-83
2023/08/18 07:36:59;;;;;;;19.05;9.27;;;;;;;;;;5063303;28;20795;-82
2023/08/18 07:39:25;;;;;;;21.05;8.90;;;;;;;;;;5043033;28;20048;-81
2023/08/18 07:41:52;;;;;;;22.85;9.80;;;;;;;;;;5061782;28;20053;-81
2023/08/18 07:44:18;;;;;;;22.52;9.85;;;;;;;;;;5047195;28;20487;-82
2023/08/18 07:46:44;;;;;;;20.10;8.80;;;;;;;;;;5056700;28;20626;-81
2023/08/18 07:49:10;;;;;;;19.05;9.20;;;;;;;;;;5059209;28;20396;-82
2023/08/18 07:51:37;;;;;;;23.67;9.52;;;;;;;;;;5056185;28;20036;-80
2023/08/18 07:54:03;;;;;;;20.35;9.02;;;;;;;;;;5066716;28;20067;-82
2023/08/18 07:56:29;;;;;;;20.13;9.50;;;;;;;;;;5064676;28;20091;-83
2023/08/18 07:58:55;;;;;;;21.02;8.75;;;;;;;;;;5043365;28;20123;-81
2023/08/18 08:01:22;;;;;;;17.90;8.93;;;;;;;;;;5057936;28;20037;-81
2023/08/18 08:03:48;;;;;;;18.27;8.60;;;;;;;;;;5041663;28;20040;-83
2023/08/18 08:06:17;;;;;;;22.10;8.52;;;;;;;;;;5058555;28;20049;-82
2023/08/18 08:08:43;;;;;;;19.60;8.82;;;;;;;;;;5043707;28;20049;-83
2023/08/18 08:11:09;;;;;;;15.85;8.07;;;;;;;;;;5040087;28;20036;-82
2023/08/18 08:13:35;;;;;;;19.00;8.35;;;;;;;;;;5064960;28;20041;-83
2023/08/18 08:16:01;;;;;;;20.90;9.23;;;;;;;;;;5063620;28;20106;-83
2023/08/18 08:18:27;;;;;;;18.85;8.65;;;;;;;;;;5056534;28;20051;-83
2023/08/18 08:20:53;;;;;;;18.83;8.65;;;;;;;;;;5069558;28;20045;-83
2023/08/18 08:23:19;;;;;;;16.33;8.27;;;;;;;;;;5067122;28;20066;-83
2023/08/18 08:25:47;;;;;;;17.55;8.80;;;;;;;;;;5064191;28;20045;-82
2023/08/18 08:28:13;;;;;;;16.50;8.00;;;;;;;;;;5076757;28;20048;-83
2023/08/18 08:30:44;;;;;;;16.92;8.50;;;;;;;;;;5067726;28;20041;-84
2023/08/18 08:33:10;;;;;;;18.35;8.98;;;;;;;;;;5068380;28;20048;-81
2023/08/18 08:35:36;;;;;;;16.48;8.98;;;;;;;;;;5069161;28;20063;-82
2023/08/18 08:38:03;;;;;;;16.40;8.75;;;;;;;;;;5069489;28;20052;-83
2023/08/18 08:40:29;;;;;;;16.70;8.77;;;;;;;;;;5032162;28;20041;-84
2023/08/18 08:42:56;;;;;;;18.35;9.23;;;;;;;;;;5047947;28;20136;-84
2023/08/18 08:45:26;;;;;;;14.65;8.27;;;;;;;;;;5071881;28;20049;-84
2023/08/18 08:47:52;;;;;;;20.23;8.77;;;;;;;;;;5063676;28;20060;-83
2023/08/18 08:50:18;;;;;;;15.40;9.05;;;;;;;;;;5073245;28;20041;-83
2023/08/18 08:52:46;;;;;;;15.95;9.25;;;;;;;;;;5071338;28;20037;-82
2023/08/18 08:55:13;;;;;;;13.90;8.55;;;;;;;;;;5071866;28;20049;-82
2023/08/18 08:57:39;;;;;;;16.48;8.25;;;;;;;;;;5070250;28;20096;-83
2023/08/18 09:00:05;;;;;;;15.88;9.13;;;;;;;;;;5071340;28;20056;-83
2023/08/18 09:02:32;;;;;;;16.58;9.10;;;;;;;;;;5070636;28;20041;-84
2023/08/18 09:05:00;;;;;;;14.32;8.05;;;;;;;;;;5058982;28;20109;-83
2023/08/18 09:07:27;;;;;;;15.13;8.45;;;;;;;;;;5066880;28;20057;-84
2023/08/18 09:09:54;;;;;;;16.33;8.52;;;;;;;;;;5050680;28;20108;-84
2023/08/18 09:12:26;;;;;;;16.10;8.15;;;;;;;;;;5064169;28;20041;-84
2023/08/18 09:14:53;;;;;;;17.60;7.95;;;;;;;;;;5035284;28;20080;-83
2023/08/18 09:17:22;;;;;;;18.42;8.20;;;;;;;;;;5042404;28;20087;-82
2023/08/18 09:19:49;;;;;;;14.05;8.32;;;;;;;;;;5071448;28;20105;-82
2023/08/18 09:22:21;;;;;;;14.32;7.95;;;;;;;;;;5070544;28;20044;-83
2023/08/18 09:24:47;;;;;;;13.85;7.45;;;;;;;;;;5065467;28;20089;-83
2023/08/18 09:27:14;;;;;;;15.40;7.28;;;;;;;;;;5064184;28;20059;-83
2023/08/18 09:29:40;;;;;;;14.85;7.38;;;;;;;;;;5056375;28;20041;-84
2023/08/18 09:32:11;;;;;;;11.90;7.10;;;;;;;;;;5062481;28;20076;-82
2023/08/18 09:34:44;;;;;;;12.55;6.82;;;;;;;;;;5052109;28;20109;-82
2023/08/18 09:37:10;;;;;;;11.95;7.28;;;;;;;;;;5072613;28;20053;-82
2023/08/18 09:39:36;;;;;;;12.57;7.82;;;;;;;;;;5069811;28;20063;-82
2023/08/18 09:42:07;;;;;;;12.18;7.03;;;;;;;;;;5055211;28;20498;-82
2023/08/18 09:44:33;;;;;;;13.18;6.82;;;;;;;;;;5071383;28;20101;-83
2023/08/18 09:46:59;;;;;;;14.98;7.32;;;;;;;;;;5065948;28;20126;-83
2023/08/18 09:49:27;;;;;;;12.07;7.72;;;;;;;;;;5067287;28;20049;-83
2023/08/18 09:52:03;;;;;;;11.50;7.88;;;;;;;;;;5064863;28;20045;-82
2023/08/18 09:54:31;;;;;;;11.25;7.43;;;;;;;;;;5050135;28;20084;-81
2023/08/18 09:57:00;;;;;;;15.30;7.75;;;;;;;;;;5049398;28;20537;-82
2023/08/18 09:59:29;;;;;;;12.45;7.38;;;;;;;;;;5053120;28;20386;-81
2023/08/18 10:01:55;;;;;;;13.25;7.30;;;;;;;;;;5065469;28;20049;-81
2023/08/18 10:04:23;;;;;;;13.05;7.30;;;;;;;;;;5067577;28;20137;-82
2023/08/18 10:06:49;;;;;;;16.75;7.43;;;;;;;;;;5061278;28;20073;-82
2023/08/18 10:09:16;;;;;;;10.57;7.10;;;;;;;;;;5053357;28;20073;-81
2023/08/18 10:11:43;;;;;;;10.80;7.35;;;;;;;;;;5032296;28;20041;-81
2023/08/18 10:14:09;;;;;;;14.10;7.10;;;;;;;;;;5033444;28;20073;-83
2023/08/18 10:16:36;;;;;;;14.50;7.18;;;;;;;;;;5077546;28;20049;-82
2023/08/18 10:19:02;;;;;;;13.77;7.10;;;;;;;;;;5058399;28;20041;-82
2023/08/18 10:21:29;;;;;;;12.02;7.47;;;;;;;;;;5061999;28;20056;-81
2023/08/18 10:23:55;;;;;;;10.88;6.85;;;;;;;;;;5060501;28;20044;-83
2023/08/18 10:26:24;;;;;;;18.15;7.68;;;;;;;;;;5067346;28;20076;-82
2023/08/18 10:28:51;;;;;;;12.02;7.40;;;;;;;;;;5066915;28;20060;-81
2023/08/18 10:31:17;;;;;;;13.75;7.43;;;;;;;;;;5066665;28;20056;-82
2023/08/18 10:33:45;;;;;;;11.20;8.60;;;;;;;;;;5053470;28;20067;-83
2023/08/18 10:36:14;;;;;;;15.00;7.82;;;;;;;;;;5053186;28;20053;-83
2023/08/18 10:38:40;;;;;;;11.80;7.32;;;;;;;;;;5050101;28;20037;-83
2023/08/18 10:41:07;;;;;;;12.70;8.02;;;;;;;;;;5069903;28;20105;-82
2023/08/18 10:43:42;;;;;;;18.13;7.22;;;;;;;;;;5033350;28;20041;-82
2023/08/18 10:46:13;;;;;;;12.82;7.68;;;;;;;;;;5070150;28;20067;-82
2023/08/18 10:48:39;;;;;;;;;;;;;;;;;;5069379;28;20068;-83
2023/08/18 10:51:05;;;;;;;12.40;8.50;;;;;;;;;;5048615;28;19924;-83
2023/08/18 10:53:36;;;;;;;10.88;8.13;;;;;;;;;;5033143;28;20488;-83
2023/08/18 10:56:06;;;;;;;11.00;8.13;;;;;;;;;;5047821;28;20104;-83
2023/08/18 10:58:32;;;;;;;15.63;8.38;;;;;;;;;;5068869;28;20037;-82
2023/08/18 11:00:59;;;;;;;10.00;7.93;;;;;;;;;;5070052;28;20659;-82
2023/08/18 11:03:25;;;;;;;12.32;8.40;;;;;;;;;;5067973;28;20041;-82
2023/08/18 11:05:52;;;;;;;12.57;8.55;;;;;;;;;;5050408;28;20128;-81
2023/08/18 11:08:18;;;;;;;13.10;8.77;;;;;;;;;;5051823;28;20072;-81
2023/08/18 11:10:44;;;;;;;13.07;8.70;;;;;;;;;;5068142;28;20116;-82
2023/08/18 11:13:13;;;;;;;11.60;7.93;;;;;;;;;;5069353;28;20049;-81
2023/08/18 11:15:39;;;;;;;13.45;9.30;;;;;;;;;;5068097;28;20398;-81
2023/08/18 11:18:05;;;;;;;13.65;8.90;;;;;;;;;;5049341;28;20087;-82
2023/08/18 11:20:32;;;;;;;13.27;9.93;;;;;;;;;;5066577;28;20040;-83
2023/08/18 11:22:58;;;;;;;16.40;8.68;;;;;;;;;;5068518;28;20127;-81
2023/08/18 11:25:25;;;;;;;13.38;10.40;;;;;;;;;;5044873;28;20434;-82
2023/08/18 11:27:52;;;;;;;11.73;9.07;;;;;;;;;;5071687;28;20098;-82
2023/08/18 11:30:19;;;;;;;12.82;10.48;;;;;;;;;;5067916;28;20053;-82
2023/08/18 11:32:45;;;;;;;12.27;9.73;;;;;;;;;;5064308;28;20051;-82
2023/08/18 11:35:12;;;;;;;14.07;10.38;;;;;;;;;;5067713;28;20037;-83
2023/08/18 11:37:42;;;;;;;13.88;9.63;;;;;;;;;;5068341;28;20073;-80
2023/08/18 11:40:10;;;;;;;14.77;9.68;;;;;;;;;;5064269;28;20040;-82
2023/08/18 11:42:38;;;;;;;14.30;9.82;;;;;;;;;;5060867;28;20065;-82
2023/08/18 11:45:07;;;;;;;;;;;;;;;;;;5061195;28;20495;-83
2023/08/18 11:47:35;;;;;;;14.23;9.55;;;;;;;;;;5066872;28;20003;-83
2023/08/18 11:50:03;;;;;;;13.23;9.43;;;;;;;;;;5065415;28;20045;-82
2023/08/18 11:52:38;;;;;;;14.85;10.52;;;;;;;;;;5061127;28;20415;-81
2023/08/18 11:55:05;;;;;;;13.45;10.38;;;;;;;;;;5063431;28;20073;-81
2023/08/18 11:57:31;;;;;;;13.38;10.35;;;;;;;;;;5066132;28;20040;-81
2023/08/18 11:59:57;;;;;;;12.70;10.07;;;;;;;;;;5065910;28;20052;-81
2023/08/18 12:02:23;;;;;;;14.02;11.23;;;;;;;;;;5066651;28;20491;-80
2023/08/18 12:04:51;;;;;;;14.70;11.15;;;;;;;;;;5065479;28;20053;-82
2023/08/18 12:07:17;;;;;;;15.20;11.30;;;;;;;;;;5050757;28;20380;-80
2023/08/18 12:09:45;;;;;;;16.58;10.50;;;;;;;;;;5066471;28;20117;-82
2023/08/18 12:12:14;;;;;;;15.68;10.85;;;;;;;;;;5065268;28;20041;-81
2023/08/18 12:14:40;;;;;;;15.93;10.68;;;;;;;;;;5056333;28;20116;-81
2023/08/18 12:17:06;;;;;;;15.15;10.85;;;;;;;;;;5066143;28;20041;-81
2023/08/18 12:19:34;;;;;;;15.63;10.73;;;;;;;;;;5066933;28;20068;-80
2023/08/18 12:22:00;;;;;;;15.20;11.23;;;;;;;;;;5066843;28;20053;-81
2023/08/18 12:24:26;;;;;;;15.82;11.82;;;;;;;;;;5064808;28;20120;-82
2023/08/18 12:26:52;;;;;;;16.00;11.95;;;;;;;;;;5065066;28;20056;-81
2023/08/18 12:29:18;;;;;;;14.07;10.65;;;;;;;;;;5065455;28;20045;-80
2023/08/18 12:31:44;;;;;;;17.92;11.82;;;;;;;;;;5066359;28;20202;-80
2023/08/18 12:34:10;;;;;;;18.38;11.82;;;;;;;;;;5063700;28;20049;-82
2023/08/18 12:36:36;;;;;;;16.35;11.18;;;;;;;;;;5047625;28;20100;-82
2023/08/18 12:39:03;;;;;;;14.50;11.10;;;;;;;;;;5066686;28;20136;-82
2023/08/18 12:41:30;;;;;;;15.00;12.20;;;;;;;;;;5065896;28;20076;-81
2023/08/18 12:43:56;;;;;;;18.80;11.48;;;;;;;;;;5066597;28;20088;-81
2023/08/18 12:46:22;;;;;;;20.48;13.20;;;;;;;;;;5066583;28;20060;-82
2023/08/18 12:48:48;;;;;;;16.10;12.05;;;;;;;;;;5064601;28;20048;-80
2023/08/18 12:51:17;;;;;;;15.85;12.25;;;;;;;;;;5066668;28;20101;-81
2023/08/18 12:53:44;;;;;;;15.32;12.02;;;;;;;;;;5051071;28;20044;-80
2023/08/18 12:56:11;;;;;;;16.42;12.68;;;;;;;;;;5065236;28;20052;-81
2023/08/18 12:58:39;;;;;;;16.88;12.68;;;;;;;;;;5067573;28;20045;-80
2023/08/18 13:01:07;;;;;;;15.43;13.82;;;;;;;;;;5064430;28;20041;-82
2023/08/18 13:03:33;;;;;;;14.25;12.05;;;;;;;;;;5034281;28;20044;-81
2023/08/18 13:05:59;;;;;;;13.90;11.60;;;;;;;;;;5069554;28;20048;-81
2023/08/18 13:08:25;;;;;;;15.23;13.43;;;;;;;;;;5053294;28;20104;-81
2023/08/18 13:10:52;;;;;;;16.70;12.93;;;;;;;;;;5048735;28;20411;-82
2023/08/18 13:13:18;;;;;;;15.05;12.55;;;;;;;;;;5061493;28;20046;-81
2023/08/18 13:15:44;;;;;;;16.88;11.95;;;;;;;;;;5063978;28;20052;-82
2023/08/18 13:18:10;;;;;;;17.20;12.02;;;;;;;;;;5050326;28;20044;-82
2023/08/18 13:20:36;;;;;;;12.77;10.68;;;;;;;;;;5031954;28;20045;-82
2023/08/18 13:23:03;;;;;;;15.82;12.13;;;;;;;;;;5050227;28;20076;-82
2023/08/18 13:25:31;;;;;;;18.00;12.52;;;;;;;;;;5047839;28;20049;-81
2023/08/18 13:27:57;;;;;;;17.25;13.00;;;;;;;;;;5050310;28;20056;-81
2023/08/18 13:30:24;;;;;;;13.07;11.63;;;;;;;;;;5051604;28;20037;-81
2023/08/18 13:32:50;;;;;;;14.30;11.90;;;;;;;;;;5068622;28;20045;-81
2023/08/18 13:35:16;;;;;;;16.10;11.70;;;;;;;;;;5067765;28;20041;-81
2023/08/18 13:37:43;;;;;;;16.08;13.57;;;;;;;;;;5066447;28;20073;-80
2023/08/18 13:40:09;;;;;;;12.30;10.65;;;;;;;;;;5066824;28;20113;-81
2023/08/18 13:42:35;;;;;;;12.75;10.23;;;;;;;;;;5068027;28;20044;-81
2023/08/18 13:45:02;;;;;;;16.25;12.10;;;;;;;;;;5066848;28;20100;-81
2023/08/18 13:47:28;;;;;;;15.27;12.25;;;;;;;;;;5067851;28;20071;-81
2023/08/18 13:49:54;;;;;;;16.75;12.93;;;;;;;;;;5068870;28;20049;-81
2023/08/18 13:52:21;;;;;;;17.77;12.02;;;;;;;;;;5068073;28;20044;-81
2023/08/18 13:54:47;;;;;;;15.20;11.95;;;;;;;;;;5064409;28;20052;-82
2023/08/18 13:57:14;;;;;;;14.32;12.25;;;;;;;;;;5068696;28;20041;-82
2023/08/18 13:59:40;;;;;;;16.30;11.88;;;;;;;;;;5057750;28;20763;-81
2023/08/18 14:02:06;;;;;;;14.43;11.30;;;;;;;;;;5068841;28;20045;-81
2023/08/18 14:04:32;;;;;;;18.30;11.85;;;;;;;;;;5067984;28;20410;-81
2023/08/18 14:07:02;;;;;;;14.25;11.52;;;;;;;;;;5080359;28;20510;-81
2023/08/18 14:09:28;;;;;;;17.45;12.40;;;;;;;;;;5072978;28;20044;-82
2023/08/18 14:11:54;;;;;;;14.15;11.38;;;;;;;;;;5065553;28;20041;-82
2023/08/18 14:14:20;;;;;;;12.90;11.48;;;;;;;;;;5060883;28;20044;-81
2023/08/18 14:16:46;;;;;;;14.90;10.82;;;;;;;;;;5065262;28;20045;-82
2023/08/18 14:19:13;;;;;;;13.27;11.07;;;;;;;;;;5065179;28;20143;-81
2023/08/18 14:21:40;;;;;;;11.18;9.98;;;;;;;;;;5062656;28;20045;-81
2023/08/18 14:24:07;;;;;;;12.15;10.85;;;;;;;;;;5041369;28;20064;-82
2023/08/18 14:26:33;;;;;;;12.80;10.55;;;;;;;;;;5059724;28;20112;-81
2023/08/18 14:28:59;;;;;;;13.18;9.80;;;;;;;;;;5058165;28;20045;-81